sensor_id;sensor_type;location;lat;lon;timestamp;P1;durP1;ratioP1;P2;durP2;ratioP2
42742;SDS011;28397;44.552;-0.848;2024-03-23T00:55:41;7.93;;;1.77;;
42742;SDS011;28397;44.552;-0.848;2024-03-23T00:58:07;6.57;;;2.10;;
42742;SDS011;28397;44.552;-0.848;2024-03-23T01:00:33;6.53;;;2.00;;
42742;SDS011;28397;44.552;-0.848;2024-03-23T01:02:59;6.45;;;1.80;;
42742;SDS011;28397;44.552;-0.848;2024-03-23T01:05:25;10.02;;;2.38;;
42742;SDS011;28397;44.552;-0.848;2024-03-23T01:07:50;9.52;;;2.08;;
42742;SDS011;28397;44.552;-0.848;2024-03-23T01:10:16;6.65;;;2.00;;
42742;SDS011;28397;44.552;-0.848;2024-03-23T01:12:42;7.50;;;2.10;;
42742;SDS011;28397;44.552;-0.848;2024-03-23T01:15:07;7.03;;;2.20;;
42742;SDS011;28397;44.552;-0.848;2024-03-23T01:17:33;4.45;;;1.73;;
42742;SDS011;28397;44.552;-0.848;2024-03-23T01:19:59;6.43;;;2.05;;
42742;SDS011;28397;44.552;-0.848;2024-03-23T01:22:25;5.32;;;1.55;;
42742;SDS011;28397;44.552;-0.848;2024-03-23T01:24:50;4.55;;;1.75;;
42742;SDS011;28397;44.552;-0.848;2024-03-23T01:27:16;5.82;;;1.60;;
42742;SDS011;28397;44.552;-0.848;2024-03-23T01:29:42;5.22;;;1.52;;
42742;SDS011;28397;44.552;-0.848;2024-03-23T01:32:07;9.30;;;3.00;;
42742;SDS011;28397;44.552;-0.848;2024-03-23T01:34:33;9.07;;;2.88;;
42742;SDS011;28397;44.552;-0.848;2024-03-23T01:36:59;11.15;;;3.00;;
42742;SDS011;28397;44.552;-0.848;2024-03-23T01:39:24;12.18;;;3.10;;
42742;SDS011;28397;44.552;-0.848;2024-03-23T01:41:50;13.82;;;3.33;;
42742;SDS011;28397;44.552;-0.848;2024-03-23T01:44:16;13.63;;;3.38;;
42742;SDS011;28397;44.552;-0.848;2024-03-23T01:46:42;12.30;;;3.60;;
42742;SDS011;28397;44.552;-0.848;2024-03-23T01:49:09;11.25;;;3.35;;
42742;SDS011;28397;44.552;-0.848;2024-03-23T01:51:35;13.82;;;3.60;;
42742;SDS011;28397;44.552;-0.848;2024-03-23T01:54:02;14.05;;;3.97;;
42742;SDS011;28397;44.552;-0.848;2024-03-23T01:56:29;13.05;;;3.80;;
42742;SDS011;28397;44.552;-0.848;2024-03-23T01:59:06;18.23;;;4.63;;
42742;SDS011;28397;44.552;-0.848;2024-03-23T02:01:32;18.08;;;4.18;;
42742;SDS011;28397;44.552;-0.848;2024-03-23T02:04:00;13.20;;;3.60;;
42742;SDS011;28397;44.552;-0.848;2024-03-23T02:06:26;12.50;;;3.00;;
42742;SDS011;28397;44.552;-0.848;2024-03-23T02:08:53;10.75;;;3.40;;
42742;SDS011;28397;44.552;-0.848;2024-03-23T02:11:19;9.95;;;3.00;;
42742;SDS011;28397;44.552;-0.848;2024-03-23T02:13:45;12.38;;;3.22;;
42742;SDS011;28397;44.552;-0.848;2024-03-23T02:16:11;7.55;;;2.30;;
42742;SDS011;28397;44.552;-0.848;2024-03-23T02:18:38;10.25;;;2.78;;
42742;SDS011;28397;44.552;-0.848;2024-03-23T02:21:04;9.30;;;2.70;;
42742;SDS011;28397;44.552;-0.848;2024-03-23T02:23:29;12.35;;;3.17;;
42742;SDS011;28397;44.552;-0.848;2024-03-23T02:25:55;10.57;;;2.85;;
42742;SDS011;28397;44.552;-0.848;2024-03-23T02:28:21;12.25;;;3.35;;
42742;SDS011;28397;44.552;-0.848;2024-03-23T02:30:48;11.10;;;2.92;;
42742;SDS011;28397;44.552;-0.848;2024-03-23T02:33:14;12.10;;;3.17;;
42742;SDS011;28397;44.552;-0.848;2024-03-23T02:35:40;14.48;;;3.38;;
42742;SDS011;28397;44.552;-0.848;2024-03-23T02:38:05;12.98;;;3.47;;
42742;SDS011;28397;44.552;-0.848;2024-03-23T02:40:31;13.43;;;3.50;;
42742;SDS011;28397;44.552;-0.848;2024-03-23T02:42:57;13.98;;;4.10;;
42742;SDS011;28397;44.552;-0.848;2024-03-23T02:45:23;13.32;;;3.72;;
42742;SDS011;28397;44.552;-0.848;2024-03-23T02:47:48;15.05;;;3.88;;
42742;SDS011;28397;44.552;-0.848;2024-03-23T02:50:17;14.27;;;3.83;;
42742;SDS011;28397;44.552;-0.848;2024-03-23T02:52:46;12.63;;;3.33;;
42742;SDS011;28397;44.552;-0.848;2024-03-23T02:55:12;14.00;;;3.63;;
42742;SDS011;28397;44.552;-0.848;2024-03-23T02:57:38;14.85;;;3.95;;
42742;SDS011;28397;44.552;-0.848;2024-03-23T03:00:04;14.55;;;3.92;;
42742;SDS011;28397;44.552;-0.848;2024-03-23T03:02:31;12.88;;;3.97;;
42742;SDS011;28397;44.552;-0.848;2024-03-23T03:04:57;11.98;;;4.05;;
42742;SDS011;28397;44.552;-0.848;2024-03-23T03:07:23;12.15;;;3.53;;
42742;SDS011;28397;44.552;-0.848;2024-03-23T03:09:48;12.88;;;3.92;;
42742;SDS011;28397;44.552;-0.848;2024-03-23T03:12:14;15.48;;;3.70;;
42742;SDS011;28397;44.552;-0.848;2024-03-23T03:14:40;15.30;;;4.55;;
42742;SDS011;28397;44.552;-0.848;2024-03-23T03:17:05;14.70;;;4.30;;
42742;SDS011;28397;44.552;-0.848;2024-03-23T03:19:31;14.07;;;4.57;;
42742;SDS011;28397;44.552;-0.848;2024-03-23T03:21:57;14.82;;;3.92;;
42742;SDS011;28397;44.552;-0.848;2024-03-23T03:24:23;16.15;;;4.70;;
42742;SDS011;28397;44.552;-0.848;2024-03-23T03:26:49;16.65;;;4.57;;
42742;SDS011;28397;44.552;-0.848;2024-03-23T03:29:15;16.98;;;4.38;;
42742;SDS011;28397;44.552;-0.848;2024-03-23T03:31:41;13.98;;;4.60;;
42742;SDS011;28397;44.552;-0.848;2024-03-23T03:34:07;17.73;;;4.78;;
42742;SDS011;28397;44.552;-0.848;2024-03-23T03:36:33;13.55;;;4.13;;
42742;SDS011;28397;44.552;-0.848;2024-03-23T03:38:59;13.93;;;4.18;;
42742;SDS011;28397;44.552;-0.848;2024-03-23T03:41:25;13.90;;;4.10;;
42742;SDS011;28397;44.552;-0.848;2024-03-23T03:43:50;13.57;;;4.13;;
42742;SDS011;28397;44.552;-0.848;2024-03-23T03:46:16;14.63;;;4.75;;
42742;SDS011;28397;44.552;-0.848;2024-03-23T03:48:42;15.00;;;4.28;;
42742;SDS011;28397;44.552;-0.848;2024-03-23T03:51:10;18.30;;;4.35;;
42742;SDS011;28397;44.552;-0.848;2024-03-23T03:53:36;16.58;;;4.05;;
42742;SDS011;28397;44.552;-0.848;2024-03-23T03:56:01;14.88;;;4.30;;
42742;SDS011;28397;44.552;-0.848;2024-03-23T03:58:27;14.55;;;4.13;;
42742;SDS011;28397;44.552;-0.848;2024-03-23T04:00:53;17.23;;;4.35;;
42742;SDS011;28397;44.552;-0.848;2024-03-23T04:03:19;14.40;;;4.00;;
42742;SDS011;28397;44.552;-0.848;2024-03-23T04:05:54;13.35;;;4.13;;
42742;SDS011;28397;44.552;-0.848;2024-03-23T04:08:20;23.77;;;4.72;;
42742;SDS011;28397;44.552;-0.848;2024-03-23T04:10:46;14.55;;;3.78;;
42742;SDS011;28397;44.552;-0.848;2024-03-23T04:13:12;17.48;;;4.70;;
42742;SDS011;28397;44.552;-0.848;2024-03-23T04:15:38;14.18;;;4.15;;
42742;SDS011;28397;44.552;-0.848;2024-03-23T04:18:04;17.15;;;4.43;;
42742;SDS011;28397;44.552;-0.848;2024-03-23T04:20:30;12.60;;;4.00;;
42742;SDS011;28397;44.552;-0.848;2024-03-23T04:22:57;15.45;;;4.18;;
42742;SDS011;28397;44.552;-0.848;2024-03-23T04:25:23;15.05;;;3.92;;
42742;SDS011;28397;44.552;-0.848;2024-03-23T04:27:49;13.75;;;4.20;;
42742;SDS011;28397;44.552;-0.848;2024-03-23T04:30:15;14.52;;;3.67;;
42742;SDS011;28397;44.552;-0.848;2024-03-23T04:32:41;16.25;;;4.07;;
42742;SDS011;28397;44.552;-0.848;2024-03-23T04:35:07;16.17;;;4.05;;
42742;SDS011;28397;44.552;-0.848;2024-03-23T04:37:36;14.68;;;4.13;;
42742;SDS011;28397;44.552;-0.848;2024-03-23T04:40:03;12.45;;;3.47;;
42742;SDS011;28397;44.552;-0.848;2024-03-23T04:42:29;13.85;;;4.00;;
42742;SDS011;28397;44.552;-0.848;2024-03-23T04:44:56;9.90;;;3.55;;
42742;SDS011;28397;44.552;-0.848;2024-03-23T04:47:22;16.42;;;4.13;;
42742;SDS011;28397;44.552;-0.848;2024-03-23T04:49:47;12.77;;;3.33;;
42742;SDS011;28397;44.552;-0.848;2024-03-23T04:52:13;13.65;;;3.97;;
42742;SDS011;28397;44.552;-0.848;2024-03-23T04:54:40;15.77;;;3.75;;
42742;SDS011;28397;44.552;-0.848;2024-03-23T04:57:06;10.98;;;3.05;;
42742;SDS011;28397;44.552;-0.848;2024-03-23T04:59:32;15.00;;;4.30;;
42742;SDS011;28397;44.552;-0.848;2024-03-23T05:01:58;15.55;;;4.40;;
42742;SDS011;28397;44.552;-0.848;2024-03-23T05:04:24;15.20;;;3.88;;
42742;SDS011;28397;44.552;-0.848;2024-03-23T05:06:50;15.65;;;3.85;;
42742;SDS011;28397;44.552;-0.848;2024-03-23T05:09:16;12.88;;;3.63;;
42742;SDS011;28397;44.552;-0.848;2024-03-23T05:11:42;13.60;;;3.35;;
42742;SDS011;28397;44.552;-0.848;2024-03-23T05:14:07;14.32;;;4.07;;
42742;SDS011;28397;44.552;-0.848;2024-03-23T05:16:33;14.43;;;3.72;;
42742;SDS011;28397;44.552;-0.848;2024-03-23T05:18:59;13.30;;;3.63;;
42742;SDS011;28397;44.552;-0.848;2024-03-23T05:21:25;13.02;;;3.25;;
42742;SDS011;28397;44.552;-0.848;2024-03-23T05:23:51;14.60;;;3.45;;
42742;SDS011;28397;44.552;-0.848;2024-03-23T05:26:18;13.82;;;3.88;;
42742;SDS011;28397;44.552;-0.848;2024-03-23T05:28:44;12.02;;;3.42;;
42742;SDS011;28397;44.552;-0.848;2024-03-23T05:31:09;14.18;;;3.65;;
42742;SDS011;28397;44.552;-0.848;2024-03-23T05:33:36;18.25;;;4.10;;
42742;SDS011;28397;44.552;-0.848;2024-03-23T05:36:03;13.63;;;3.47;;
42742;SDS011;28397;44.552;-0.848;2024-03-23T05:38:29;14.38;;;4.10;;
42742;SDS011;28397;44.552;-0.848;2024-03-23T05:40:59;12.07;;;3.80;;
42742;SDS011;28397;44.552;-0.848;2024-03-23T05:43:25;15.60;;;3.95;;
42742;SDS011;28397;44.552;-0.848;2024-03-23T05:45:58;14.25;;;3.67;;
42742;SDS011;28397;44.552;-0.848;2024-03-23T05:48:28;14.38;;;4.18;;
42742;SDS011;28397;44.552;-0.848;2024-03-23T05:50:55;13.63;;;4.40;;
42742;SDS011;28397;44.552;-0.848;2024-03-23T05:53:22;13.48;;;3.70;;
42742;SDS011;28397;44.552;-0.848;2024-03-23T05:55:48;13.13;;;3.65;;
42742;SDS011;28397;44.552;-0.848;2024-03-23T05:58:15;17.65;;;4.47;;
42742;SDS011;28397;44.552;-0.848;2024-03-23T06:00:42;15.27;;;3.78;;
42742;SDS011;28397;44.552;-0.848;2024-03-23T06:03:08;15.90;;;4.03;;
42742;SDS011;28397;44.552;-0.848;2024-03-23T06:05:35;12.00;;;3.45;;
42742;SDS011;28397;44.552;-0.848;2024-03-23T06:08:01;13.38;;;3.70;;
42742;SDS011;28397;44.552;-0.848;2024-03-23T06:10:27;11.73;;;3.63;;
42742;SDS011;28397;44.552;-0.848;2024-03-23T06:12:53;13.13;;;3.85;;
42742;SDS011;28397;44.552;-0.848;2024-03-23T06:15:19;18.48;;;4.65;;
42742;SDS011;28397;44.552;-0.848;2024-03-23T06:17:45;11.95;;;3.40;;
42742;SDS011;28397;44.552;-0.848;2024-03-23T06:20:11;11.60;;;3.53;;
42742;SDS011;28397;44.552;-0.848;2024-03-23T06:22:37;15.95;;;4.03;;
42742;SDS011;28397;44.552;-0.848;2024-03-23T06:25:03;15.77;;;3.97;;
42742;SDS011;28397;44.552;-0.848;2024-03-23T06:27:29;10.95;;;3.00;;
42742;SDS011;28397;44.552;-0.848;2024-03-23T06:29:57;12.65;;;3.22;;
42742;SDS011;28397;44.552;-0.848;2024-03-23T06:32:23;11.70;;;3.50;;
42742;SDS011;28397;44.552;-0.848;2024-03-23T06:34:48;14.13;;;4.00;;
42742;SDS011;28397;44.552;-0.848;2024-03-23T06:37:14;13.45;;;3.72;;
42742;SDS011;28397;44.552;-0.848;2024-03-23T06:39:40;10.50;;;3.58;;
42742;SDS011;28397;44.552;-0.848;2024-03-23T06:42:06;12.38;;;3.60;;
42742;SDS011;28397;44.552;-0.848;2024-03-23T06:44:33;11.60;;;3.63;;
42742;SDS011;28397;44.552;-0.848;2024-03-23T06:46:59;13.30;;;3.45;;
42742;SDS011;28397;44.552;-0.848;2024-03-23T06:49:25;14.07;;;3.92;;
42742;SDS011;28397;44.552;-0.848;2024-03-23T06:51:51;12.95;;;3.60;;
42742;SDS011;28397;44.552;-0.848;2024-03-23T06:54:16;11.60;;;3.70;;
42742;SDS011;28397;44.552;-0.848;2024-03-23T06:56:45;13.57;;;3.53;;
42742;SDS011;28397;44.552;-0.848;2024-03-23T06:59:11;13.43;;;3.42;;
42742;SDS011;28397;44.552;-0.848;2024-03-23T07:01:37;11.93;;;3.50;;
42742;SDS011;28397;44.552;-0.848;2024-03-23T07:04:03;12.18;;;3.40;;
42742;SDS011;28397;44.552;-0.848;2024-03-23T07:06:32;11.80;;;3.50;;
42742;SDS011;28397;44.552;-0.848;2024-03-23T07:08:57;14.52;;;3.78;;
42742;SDS011;28397;44.552;-0.848;2024-03-23T07:11:23;14.35;;;3.65;;
42742;SDS011;28397;44.552;-0.848;2024-03-23T07:13:50;12.90;;;3.55;;
42742;SDS011;28397;44.552;-0.848;2024-03-23T07:16:16;12.40;;;3.70;;
42742;SDS011;28397;44.552;-0.848;2024-03-23T07:18:42;14.05;;;3.90;;
42742;SDS011;28397;44.552;-0.848;2024-03-23T07:21:08;12.63;;;3.72;;
42742;SDS011;28397;44.552;-0.848;2024-03-23T07:23:34;14.98;;;4.22;;
42742;SDS011;28397;44.552;-0.848;2024-03-23T07:26:01;12.88;;;4.10;;
42742;SDS011;28397;44.552;-0.848;2024-03-23T07:28:28;15.30;;;4.20;;
42742;SDS011;28397;44.552;-0.848;2024-03-23T07:33:30;11.82;;;3.42;;
42742;SDS011;28397;44.552;-0.848;2024-03-23T07:35:57;12.25;;;3.42;;
42742;SDS011;28397;44.552;-0.848;2024-03-23T07:38:24;13.32;;;3.90;;
42742;SDS011;28397;44.552;-0.848;2024-03-23T07:40:51;10.85;;;3.38;;
42742;SDS011;28397;44.552;-0.848;2024-03-23T07:43:21;16.40;;;3.60;;
42742;SDS011;28397;44.552;-0.848;2024-03-23T07:45:52;12.30;;;3.95;;
42742;SDS011;28397;44.552;-0.848;2024-03-23T07:48:18;14.95;;;3.75;;
42742;SDS011;28397;44.552;-0.848;2024-03-23T07:50:44;14.70;;;3.88;;
42742;SDS011;28397;44.552;-0.848;2024-03-23T07:53:09;12.85;;;3.13;;
42742;SDS011;28397;44.552;-0.848;2024-03-23T07:55:35;11.32;;;3.70;;
42742;SDS011;28397;44.552;-0.848;2024-03-23T07:58:01;13.55;;;3.33;;
42742;SDS011;28397;44.552;-0.848;2024-03-23T08:00:26;10.35;;;3.10;;
42742;SDS011;28397;44.552;-0.848;2024-03-23T08:02:52;10.07;;;3.05;;
42742;SDS011;28397;44.552;-0.848;2024-03-23T08:05:18;12.02;;;3.70;;
42742;SDS011;28397;44.552;-0.848;2024-03-23T08:07:43;14.52;;;3.40;;
42742;SDS011;28397;44.552;-0.848;2024-03-23T08:10:09;11.70;;;3.25;;
42742;SDS011;28397;44.552;-0.848;2024-03-23T08:12:37;13.73;;;3.83;;
42742;SDS011;28397;44.552;-0.848;2024-03-23T08:15:03;10.13;;;3.05;;
42742;SDS011;28397;44.552;-0.848;2024-03-23T08:17:29;11.07;;;3.28;;
42742;SDS011;28397;44.552;-0.848;2024-03-23T08:19:55;12.32;;;3.45;;
42742;SDS011;28397;44.552;-0.848;2024-03-23T08:22:20;10.38;;;3.10;;
42742;SDS011;28397;44.552;-0.848;2024-03-23T08:24:47;10.15;;;3.55;;
42742;SDS011;28397;44.552;-0.848;2024-03-23T08:27:12;11.27;;;3.10;;
42742;SDS011;28397;44.552;-0.848;2024-03-23T08:29:38;11.18;;;3.35;;
42742;SDS011;28397;44.552;-0.848;2024-03-23T08:32:05;11.07;;;3.22;;
42742;SDS011;28397;44.552;-0.848;2024-03-23T08:34:31;11.52;;;3.38;;
42742;SDS011;28397;44.552;-0.848;2024-03-23T08:36:56;10.18;;;3.00;;
42742;SDS011;28397;44.552;-0.848;2024-03-23T08:39:22;10.85;;;2.95;;
42742;SDS011;28397;44.552;-0.848;2024-03-23T08:41:48;8.73;;;2.83;;
42742;SDS011;28397;44.552;-0.848;2024-03-23T08:44:13;12.40;;;3.30;;
42742;SDS011;28397;44.552;-0.848;2024-03-23T08:46:39;11.07;;;3.33;;
42742;SDS011;28397;44.552;-0.848;2024-03-23T08:49:05;13.52;;;3.20;;
42742;SDS011;28397;44.552;-0.848;2024-03-23T08:51:30;11.48;;;3.38;;
42742;SDS011;28397;44.552;-0.848;2024-03-23T08:53:56;9.35;;;3.42;;
42742;SDS011;28397;44.552;-0.848;2024-03-23T08:56:22;10.38;;;3.17;;
42742;SDS011;28397;44.552;-0.848;2024-03-23T08:58:47;10.60;;;3.20;;
42742;SDS011;28397;44.552;-0.848;2024-03-23T09:01:13;11.60;;;3.45;;
42742;SDS011;28397;44.552;-0.848;2024-03-23T09:03:39;10.85;;;3.50;;
42742;SDS011;28397;44.552;-0.848;2024-03-23T09:06:08;13.63;;;3.17;;
42742;SDS011;28397;44.552;-0.848;2024-03-23T09:08:40;13.35;;;3.30;;
42742;SDS011;28397;44.552;-0.848;2024-03-23T09:11:06;13.27;;;2.88;;
42742;SDS011;28397;44.552;-0.848;2024-03-23T09:13:33;9.18;;;3.05;;
42742;SDS011;28397;44.552;-0.848;2024-03-23T09:16:00;13.57;;;3.17;;
42742;SDS011;28397;44.552;-0.848;2024-03-23T09:18:26;11.43;;;3.17;;
42742;SDS011;28397;44.552;-0.848;2024-03-23T09:20:52;10.95;;;3.35;;
42742;SDS011;28397;44.552;-0.848;2024-03-23T09:23:20;11.18;;;3.35;;
42742;SDS011;28397;44.552;-0.848;2024-03-23T09:25:46;11.63;;;3.00;;
42742;SDS011;28397;44.552;-0.848;2024-03-23T09:28:12;10.88;;;3.10;;
42742;SDS011;28397;44.552;-0.848;2024-03-23T09:30:38;10.50;;;3.00;;
42742;SDS011;28397;44.552;-0.848;2024-03-23T09:33:07;9.82;;;2.85;;
42742;SDS011;28397;44.552;-0.848;2024-03-23T09:35:37;12.43;;;3.17;;
42742;SDS011;28397;44.552;-0.848;2024-03-23T09:38:03;8.98;;;2.50;;
42742;SDS011;28397;44.552;-0.848;2024-03-23T09:40:29;11.43;;;3.33;;
42742;SDS011;28397;44.552;-0.848;2024-03-23T09:42:55;10.32;;;3.20;;
42742;SDS011;28397;44.552;-0.848;2024-03-23T09:45:21;9.93;;;2.83;;
42742;SDS011;28397;44.552;-0.848;2024-03-23T09:47:51;10.80;;;2.63;;
42742;SDS011;28397;44.552;-0.848;2024-03-23T09:50:18;14.00;;;3.60;;
42742;SDS011;28397;44.552;-0.848;2024-03-23T09:52:45;10.52;;;2.90;;
42742;SDS011;28397;44.552;-0.848;2024-03-23T09:55:11;11.55;;;3.20;;
42742;SDS011;28397;44.552;-0.848;2024-03-23T09:57:38;11.35;;;3.15;;
42742;SDS011;28397;44.552;-0.848;2024-03-23T10:00:05;9.15;;;2.72;;
42742;SDS011;28397;44.552;-0.848;2024-03-23T10:02:31;13.40;;;3.25;;
42742;SDS011;28397;44.552;-0.848;2024-03-23T10:04:57;10.65;;;3.13;;
42742;SDS011;28397;44.552;-0.848;2024-03-23T10:07:23;11.90;;;3.45;;
42742;SDS011;28397;44.552;-0.848;2024-03-23T10:09:49;10.80;;;2.90;;
42742;SDS011;28397;44.552;-0.848;2024-03-23T10:12:18;10.95;;;3.13;;
42742;SDS011;28397;44.552;-0.848;2024-03-23T10:14:44;11.23;;;2.92;;
42742;SDS011;28397;44.552;-0.848;2024-03-23T10:17:21;11.60;;;3.05;;
42742;SDS011;28397;44.552;-0.848;2024-03-23T10:19:50;12.05;;;3.10;;
42742;SDS011;28397;44.552;-0.848;2024-03-23T10:22:18;8.77;;;2.85;;
42742;SDS011;28397;44.552;-0.848;2024-03-23T10:24:45;14.60;;;3.42;;
42742;SDS011;28397;44.552;-0.848;2024-03-23T10:27:20;9.95;;;3.28;;
42742;SDS011;28397;44.552;-0.848;2024-03-23T10:29:47;11.85;;;2.72;;
42742;SDS011;28397;44.552;-0.848;2024-03-23T10:32:13;9.75;;;2.90;;
42742;SDS011;28397;44.552;-0.848;2024-03-23T10:34:40;10.73;;;2.90;;
42742;SDS011;28397;44.552;-0.848;2024-03-23T10:37:06;11.50;;;3.00;;
42742;SDS011;28397;44.552;-0.848;2024-03-23T10:39:33;10.10;;;3.17;;
42742;SDS011;28397;44.552;-0.848;2024-03-23T10:42:03;11.90;;;3.15;;
42742;SDS011;28397;44.552;-0.848;2024-03-23T10:44:30;12.73;;;2.85;;
42742;SDS011;28397;44.552;-0.848;2024-03-23T10:46:57;10.07;;;3.03;;
42742;SDS011;28397;44.552;-0.848;2024-03-23T10:49:27;13.32;;;3.60;;
42742;SDS011;28397;44.552;-0.848;2024-03-23T10:51:55;10.48;;;3.00;;
42742;SDS011;28397;44.552;-0.848;2024-03-23T10:54:31;13.38;;;3.58;;
42742;SDS011;28397;44.552;-0.848;2024-03-23T10:57:08;16.33;;;3.53;;
42742;SDS011;28397;44.552;-0.848;2024-03-23T10:59:37;12.10;;;3.10;;
42742;SDS011;28397;44.552;-0.848;2024-03-23T11:02:04;10.55;;;3.03;;
42742;SDS011;28397;44.552;-0.848;2024-03-23T11:04:35;12.65;;;3.75;;
42742;SDS011;28397;44.552;-0.848;2024-03-23T11:07:14;15.75;;;3.53;;
42742;SDS011;28397;44.552;-0.848;2024-03-23T11:09:49;12.48;;;3.47;;
42742;SDS011;28397;44.552;-0.848;2024-03-23T11:14:56;11.88;;;3.13;;
42742;SDS011;28397;44.552;-0.848;2024-03-23T11:17:29;10.68;;;2.63;;
42742;SDS011;28397;44.552;-0.848;2024-03-23T11:19:59;9.77;;;2.70;;
42742;SDS011;28397;44.552;-0.848;2024-03-23T11:27:40;12.50;;;2.97;;
42742;SDS011;28397;44.552;-0.848;2024-03-23T11:30:12;11.18;;;3.03;;
42742;SDS011;28397;44.552;-0.848;2024-03-23T11:32:47;10.50;;;2.97;;
42742;SDS011;28397;44.552;-0.848;2024-03-23T11:38:27;9.82;;;3.08;;
42742;SDS011;28397;44.552;-0.848;2024-03-23T11:40:47;10.13;;;2.83;;
42742;SDS011;28397;44.552;-0.848;2024-03-23T11:43:14;12.50;;;2.60;;
42742;SDS011;28397;44.552;-0.848;2024-03-23T11:45:45;12.77;;;3.42;;
42742;SDS011;28397;44.552;-0.848;2024-03-23T11:48:19;10.82;;;2.90;;
42742;SDS011;28397;44.552;-0.848;2024-03-23T11:50:47;12.18;;;3.08;;
42742;SDS011;28397;44.552;-0.848;2024-03-23T11:58:18;7.88;;;2.50;;
42742;SDS011;28397;44.552;-0.848;2024-03-23T12:00:51;8.02;;;1.98;;
42742;SDS011;28397;44.552;-0.848;2024-03-23T12:03:37;8.82;;;2.50;;
42742;SDS011;28397;44.552;-0.848;2024-03-23T12:06:03;8.02;;;2.50;;
42742;SDS011;28397;44.552;-0.848;2024-03-23T12:08:30;6.85;;;2.08;;
42742;SDS011;28397;44.552;-0.848;2024-03-23T12:11:11;6.55;;;2.00;;
42742;SDS011;28397;44.552;-0.848;2024-03-23T12:13:38;7.70;;;1.70;;
42742;SDS011;28397;44.552;-0.848;2024-03-23T12:18:44;6.28;;;2.08;;
42742;SDS011;28397;44.552;-0.848;2024-03-23T12:21:10;5.10;;;1.70;;
42742;SDS011;28397;44.552;-0.848;2024-03-23T12:23:38;4.90;;;1.80;;
42742;SDS011;28397;44.552;-0.848;2024-03-23T12:26:05;6.90;;;2.10;;
42742;SDS011;28397;44.552;-0.848;2024-03-23T12:28:31;5.55;;;1.95;;
42742;SDS011;28397;44.552;-0.848;2024-03-23T12:30:58;9.27;;;2.13;;
42742;SDS011;28397;44.552;-0.848;2024-03-23T12:33:23;7.35;;;1.90;;
42742;SDS011;28397;44.552;-0.848;2024-03-23T12:35:49;7.00;;;2.00;;
42742;SDS011;28397;44.552;-0.848;2024-03-23T12:38:15;7.47;;;2.20;;
42742;SDS011;28397;44.552;-0.848;2024-03-23T12:40:42;6.15;;;1.98;;
42742;SDS011;28397;44.552;-0.848;2024-03-23T12:43:14;8.32;;;1.95;;
42742;SDS011;28397;44.552;-0.848;2024-03-23T12:45:41;5.68;;;1.70;;
42742;SDS011;28397;44.552;-0.848;2024-03-23T12:48:11;5.03;;;1.75;;
42742;SDS011;28397;44.552;-0.848;2024-03-23T12:50:36;5.68;;;1.83;;
42742;SDS011;28397;44.552;-0.848;2024-03-23T12:53:02;5.03;;;1.83;;
42742;SDS011;28397;44.552;-0.848;2024-03-23T12:55:28;5.95;;;1.92;;
42742;SDS011;28397;44.552;-0.848;2024-03-23T12:57:54;4.70;;;1.67;;
42742;SDS011;28397;44.552;-0.848;2024-03-23T13:00:20;6.55;;;1.88;;
42742;SDS011;28397;44.552;-0.848;2024-03-23T13:02:45;5.47;;;1.63;;
42742;SDS011;28397;44.552;-0.848;2024-03-23T13:05:11;7.88;;;2.03;;
42742;SDS011;28397;44.552;-0.848;2024-03-23T13:07:37;7.38;;;2.42;;
42742;SDS011;28397;44.552;-0.848;2024-03-23T13:10:03;8.65;;;2.05;;
42742;SDS011;28397;44.552;-0.848;2024-03-23T13:12:30;5.65;;;1.77;;
42742;SDS011;28397;44.552;-0.848;2024-03-23T13:14:56;6.57;;;1.80;;
42742;SDS011;28397;44.552;-0.848;2024-03-23T13:17:22;6.00;;;1.90;;
42742;SDS011;28397;44.552;-0.848;2024-03-23T13:19:47;5.97;;;1.92;;
42742;SDS011;28397;44.552;-0.848;2024-03-23T13:22:13;8.32;;;1.90;;
42742;SDS011;28397;44.552;-0.848;2024-03-23T13:24:39;9.13;;;2.30;;
42742;SDS011;28397;44.552;-0.848;2024-03-23T13:27:04;7.10;;;2.03;;
42742;SDS011;28397;44.552;-0.848;2024-03-23T13:29:32;7.30;;;2.00;;
42742;SDS011;28397;44.552;-0.848;2024-03-23T13:31:59;6.88;;;2.25;;
42742;SDS011;28397;44.552;-0.848;2024-03-23T13:34:25;7.63;;;1.98;;
42742;SDS011;28397;44.552;-0.848;2024-03-23T13:36:51;5.80;;;1.67;;
42742;SDS011;28397;44.552;-0.848;2024-03-23T13:39:16;7.18;;;2.15;;
42742;SDS011;28397;44.552;-0.848;2024-03-23T13:41:45;7.00;;;2.20;;
42742;SDS011;28397;44.552;-0.848;2024-03-23T13:44:12;9.30;;;2.17;;
42742;SDS011;28397;44.552;-0.848;2024-03-23T13:46:39;7.28;;;1.90;;
42742;SDS011;28397;44.552;-0.848;2024-03-23T13:49:08;7.57;;;1.75;;
42742;SDS011;28397;44.552;-0.848;2024-03-23T13:52:05;7.88;;;2.35;;
42742;SDS011;28397;44.552;-0.848;2024-03-23T13:54:32;8.13;;;2.20;;
42742;SDS011;28397;44.552;-0.848;2024-03-23T13:56:57;8.73;;;1.98;;
42742;SDS011;28397;44.552;-0.848;2024-03-23T13:59:23;7.25;;;2.10;;
42742;SDS011;28397;44.552;-0.848;2024-03-23T14:01:49;6.05;;;2.05;;
42742;SDS011;28397;44.552;-0.848;2024-03-23T14:04:16;8.43;;;2.30;;
42742;SDS011;28397;44.552;-0.848;2024-03-23T14:06:42;7.75;;;2.30;;
42742;SDS011;28397;44.552;-0.848;2024-03-23T14:09:11;7.90;;;2.10;;
42742;SDS011;28397;44.552;-0.848;2024-03-23T14:11:37;6.85;;;2.00;;
42742;SDS011;28397;44.552;-0.848;2024-03-23T14:14:03;8.05;;;2.35;;
42742;SDS011;28397;44.552;-0.848;2024-03-23T14:16:29;8.68;;;2.40;;
42742;SDS011;28397;44.552;-0.848;2024-03-23T14:18:56;9.85;;;2.50;;
42742;SDS011;28397;44.552;-0.848;2024-03-23T14:21:22;8.13;;;2.08;;
42742;SDS011;28397;44.552;-0.848;2024-03-23T14:23:47;7.20;;;2.17;;
42742;SDS011;28397;44.552;-0.848;2024-03-23T14:26:13;6.03;;;1.98;;
42742;SDS011;28397;44.552;-0.848;2024-03-23T14:28:39;8.98;;;2.30;;
42742;SDS011;28397;44.552;-0.848;2024-03-23T14:31:05;8.15;;;2.22;;
42742;SDS011;28397;44.552;-0.848;2024-03-23T14:33:35;7.65;;;2.33;;
42742;SDS011;28397;44.552;-0.848;2024-03-23T14:36:14;7.47;;;2.10;;
42742;SDS011;28397;44.552;-0.848;2024-03-23T14:38:40;9.57;;;2.50;;
42742;SDS011;28397;44.552;-0.848;2024-03-23T14:41:06;6.80;;;2.10;;
42742;SDS011;28397;44.552;-0.848;2024-03-23T14:43:31;10.68;;;2.40;;
42742;SDS011;28397;44.552;-0.848;2024-03-23T14:46:10;7.35;;;1.90;;
42742;SDS011;28397;44.552;-0.848;2024-03-23T14:48:40;8.63;;;2.30;;
42742;SDS011;28397;44.552;-0.848;2024-03-23T14:51:07;9.52;;;1.95;;
42742;SDS011;28397;44.552;-0.848;2024-03-23T14:53:34;8.65;;;2.35;;
42742;SDS011;28397;44.552;-0.848;2024-03-23T14:56:03;7.00;;;2.17;;
42742;SDS011;28397;44.552;-0.848;2024-03-23T14:58:29;7.50;;;2.20;;
42742;SDS011;28397;44.552;-0.848;2024-03-23T15:01:01;7.32;;;2.08;;
42742;SDS011;28397;44.552;-0.848;2024-03-23T15:03:28;9.00;;;2.33;;
42742;SDS011;28397;44.552;-0.848;2024-03-23T15:05:54;8.43;;;2.20;;
42742;SDS011;28397;44.552;-0.848;2024-03-23T15:08:21;6.68;;;1.90;;
42742;SDS011;28397;44.552;-0.848;2024-03-23T15:10:47;7.38;;;2.10;;
42742;SDS011;28397;44.552;-0.848;2024-03-23T15:13:13;8.30;;;2.45;;
42742;SDS011;28397;44.552;-0.848;2024-03-23T15:15:42;7.47;;;1.73;;
42742;SDS011;28397;44.552;-0.848;2024-03-23T15:18:12;9.65;;;2.33;;
42742;SDS011;28397;44.552;-0.848;2024-03-23T15:20:40;7.68;;;1.92;;
42742;SDS011;28397;44.552;-0.848;2024-03-23T15:23:06;8.55;;;2.33;;
42742;SDS011;28397;44.552;-0.848;2024-03-23T15:25:31;8.48;;;2.60;;
42742;SDS011;28397;44.552;-0.848;2024-03-23T15:27:57;8.77;;;2.08;;
42742;SDS011;28397;44.552;-0.848;2024-03-23T15:30:24;5.60;;;2.05;;
42742;SDS011;28397;44.552;-0.848;2024-03-23T15:32:50;6.10;;;1.77;;
42742;SDS011;28397;44.552;-0.848;2024-03-23T15:35:15;6.07;;;1.75;;
42742;SDS011;28397;44.552;-0.848;2024-03-23T15:37:41;6.45;;;1.90;;
42742;SDS011;28397;44.552;-0.848;2024-03-23T15:40:08;9.57;;;2.17;;